Time;durP1;ratioP1;P1;durP2;ratioP2;P2;SDS_P1;SDS_P2;PMS_P1;PMS_P2;Temp;Humidity;BMP_temperature;BMP_pressure;BME280_temperature;BME280_humidity;BME280_pressure;Samples;Min_cycle;Max_cycle;Signal;HPM_P1;HPM_P2
2022/09/24 00:00:06;;;;;;;;;;;;;;;19.41;50.22;100953.53;4973313;28;19914;-79
2022/09/24 00:02:51;;;;;;;;;;;;;;;19.44;49.90;100952.00;4976875;28;19918;-79
2022/09/24 00:05:36;;;;;;;;;;;;;;;19.41;50.14;100949.97;4974815;28;19914;-78
2022/09/24 00:08:21;;;;;;;;;;;;;;;19.39;50.41;100939.31;4977877;28;20297;-77
2022/09/24 00:11:06;;;;;;;;;;;;;;;19.48;50.32;100939.09;4976420;28;19914;-78
2022/09/24 00:13:52;;;;;;;;;;;;;;;19.51;50.04;100944.66;4974538;28;19914;-78
2022/09/24 00:16:38;;;;;;;;;;;;;;;19.53;49.98;100936.81;4992541;28;19913;-78
2022/09/24 00:19:22;;;;;;;;;;;;;;;19.53;48.96;100933.25;4978896;28;19917;-77
2022/09/24 00:22:07;;;;;;;;;;;;;;;19.14;48.48;100935.34;4977916;28;19917;-78
2022/09/24 00:27:54;;;;;;;;;;;;;;;19.17;50.75;100934.59;4979402;28;20293;-77
2022/09/24 00:30:40;;;;;;;;;;;;;;;19.30;50.62;100936.00;4977167;28;19914;-76
2022/09/24 00:33:27;;;;;;;;;;;;;;;19.39;50.22;100933.81;4977488;28;19914;-77
2022/09/24 00:36:14;;;;;;;;;;;;;;;19.40;50.46;100923.56;4977415;28;20374;-75
2022/09/24 00:38:59;;;;;;;;;;;;;;;19.27;48.39;100920.19;4969216;28;19914;-77
2022/09/24 00:41:46;;;;;;;;;;;;;;;19.28;50.81;100938.34;4980819;28;19917;-76
2022/09/24 00:44:40;;;;;;;;;;;;;;;19.24;50.52;100937.50;4977342;28;19914;-76
2022/09/24 00:47:27;;;;;;;;;;;;;;;19.35;50.38;100932.16;4977166;28;19914;-76
2022/09/24 00:50:15;;;;;;;;;;;;;;;19.29;48.84;100933.63;4976141;28;19914;-78
2022/09/24 00:53:09;;;;;;;;;;;;;;;19.40;50.17;100932.59;4978455;28;19914;-76
2022/09/24 00:55:54;;;;;;;;;;;;;;;19.36;49.88;100926.25;4976760;28;20289;-76
2022/09/24 00:58:39;;;;;;;;;;;;;;;19.43;50.30;100934.66;4979421;28;19913;-77
2022/09/24 01:01:24;;;;;;;;;;;;;;;19.47;50.04;100926.44;4962493;28;19914;-78
2022/09/24 01:04:09;;;;;;;;;;;;;;;19.40;50.33;100913.31;4976695;28;19913;-78
2022/09/24 01:06:55;;;;;;;;;;;;;;;19.25;48.50;100911.47;4976753;28;19918;-78
2022/09/24 01:09:40;;;;;;;;;;;;;;;19.12;49.42;100910.91;4976286;28;19914;-77
2022/09/24 01:12:27;;;;;;;;;;;;;;;19.16;50.54;100919.22;4976215;28;19913;-77
2022/09/24 01:15:21;;;;;;;;;;;;;;;19.31;50.63;100911.97;4976261;28;19929;-79
2022/09/24 01:18:10;;;;;;;;;;;;;;;19.45;50.32;100903.97;4977638;28;19914;-75
2022/09/24 01:21:12;;;;;;;;;;;;;;;19.41;49.14;100900.31;4975435;28;19914;-77
2022/09/24 01:24:00;;;;;;;;;;;;;;;19.17;48.59;100896.00;4993206;28;19918;-76
2022/09/24 01:26:55;;;;;;;;;;;;;;;18.80;49.82;100884.72;4975980;28;19918;-76
2022/09/24 01:29:48;;;;;;;;;;;;;;;18.58;49.89;100878.03;4976283;28;19914;-77
2022/09/24 01:32:39;;;;;;;;;;;;;;;18.79;51.74;100881.16;4978538;28;19918;-76
2022/09/24 01:35:30;;;;;;;;;;;;;;;18.98;51.25;100879.53;4975457;28;19914;-76
2022/09/24 01:38:21;;;;;;;;;;;;;;;19.18;50.94;100870.81;4979050;28;19913;-77
2022/09/24 01:41:08;;;;;;;;;;;;;;;19.35;50.66;100872.25;4976724;28;19913;-76
2022/09/24 01:43:52;;;;;;;;;;;;;;;19.39;50.40;100870.38;4976156;28;19922;-77
2022/09/24 01:46:38;;;;;;;;;;;;;;;19.34;50.38;100862.41;4975700;28;20282;-77
2022/09/24 01:49:23;;;;;;;;;;;;;;;19.31;50.27;100856.81;4962180;28;20385;-77
2022/09/24 01:52:09;;;;;;;;;;;;;;;19.35;50.59;100857.69;4975103;28;19922;-76
2022/09/24 01:54:55;;;;;;;;;;;;;;;19.44;50.37;100859.03;4975500;28;19914;-76
2022/09/24 01:57:49;;;;;;;;;;;;;;;19.49;50.41;100855.16;4975849;28;19914;-76
2022/09/24 02:00:36;;;;;;;;;;;;;;;19.46;50.15;100861.41;4975247;28;19914;-77
2022/09/24 02:03:24;;;;;;;;;;;;;;;19.38;50.24;100854.97;4973677;28;19918;-76
2022/09/24 02:06:16;;;;;;;;;;;;;;;19.47;50.41;100852.78;4969418;28;19914;-78
2022/09/24 02:09:01;;;;;;;;;;;;;;;19.45;49.35;100840.53;4975008;28;19914;-77
2022/09/24 02:11:49;;;;;;;;;;;;;;;19.42;50.22;100844.78;4972360;28;19922;-78
2022/09/24 02:14:37;;;;;;;;;;;;;;;19.40;50.24;100841.59;4967434;28;19914;-77
2022/09/24 02:17:23;;;;;;;;;;;;;;;19.22;49.10;100840.53;4970325;28;19914;-78
2022/09/24 02:20:10;;;;;;;;;;;;;;;19.31;50.00;100838.31;4972078;28;19914;-79
2022/09/24 02:22:56;;;;;;;;;;;;;;;19.36;50.25;100840.75;4977104;28;19918;-78
2022/09/24 02:25:45;;;;;;;;;;;;;;;19.35;50.58;100841.16;4971234;28;19914;-79
2022/09/24 02:28:31;;;;;;;;;;;;;;;19.45;50.20;100849.63;4970814;28;20297;-78
2022/09/24 02:31:17;;;;;;;;;;;;;;;19.32;48.70;100850.13;4972484;28;19914;-79
2022/09/24 02:34:20;;;;;;;;;;;;;;;18.88;49.03;100852.59;4976260;28;19914;-77
2022/09/24 02:37:10;;;;;;;;;;;;;;;18.98;51.49;100854.72;4978798;28;19921;-78
2022/09/24 02:39:54;;;;;;;;;;;;;;;19.14;50.68;100858.16;4975150;28;19914;-79
2022/09/24 02:42:41;;;;;;;;;;;;;;;19.32;50.63;100859.22;4979966;28;19918;-79
2022/09/24 02:45:26;;;;;;;;;;;;;;;19.44;50.32;100872.00;4970617;28;19915;-78
2022/09/24 02:48:10;;;;;;;;;;;;;;;19.50;50.26;100865.03;4973247;28;19914;-77
2022/09/24 02:50:55;;;;;;;;;;;;;;;19.54;50.03;100847.38;4974012;28;19914;-78
2022/09/24 02:53:39;;;;;;;;;;;;;;;19.36;47.73;100834.44;4978562;28;19914;-77
2022/09/24 02:56:23;;;;;;;;;;;;;;;19.00;48.50;100822.88;4976632;28;20293;-77
2022/09/24 02:59:08;;;;;;;;;;;;;;;18.80;49.67;100824.91;4974471;28;19918;-79
2022/09/24 03:01:52;;;;;;;;;;;;;;;19.07;51.13;100827.69;4977693;28;20389;-78
2022/09/24 03:04:36;;;;;;;;;;;;;;;19.27;50.62;100831.97;4971058;28;19914;-78
2022/09/24 03:07:21;;;;;;;;;;;;;;;19.39;50.39;100817.97;4967258;28;19914;-78
2022/09/24 03:10:06;;;;;;;;;;;;;;;19.48;50.47;100814.97;4967248;28;19914;-78
2022/09/24 03:12:50;;;;;;;;;;;;;;;19.16;48.42;100806.19;4962629;28;19914;-79
2022/09/24 03:15:35;;;;;;;;;;;;;;;18.91;49.43;100793.97;4974385;28;19914;-78
2022/09/24 03:18:19;;;;;;;;;;;;;;;18.60;49.63;100792.28;4974071;28;19914;-76
2022/09/24 03:21:05;;;;;;;;;;;;;;;18.33;50.05;100789.44;4975002;28;19914;-78
2022/09/24 03:23:50;;;;;;;;;;;;;;;18.17;51.14;100791.50;4974405;28;20309;-78
2022/09/24 03:26:35;;;;;;;;;;;;;;;18.00;52.33;100788.38;4974476;28;20297;-77
2022/09/24 03:30:58;;;;;;;;;;;;;;;18.00;52.58;100786.44;4975524;28;19914;-77
2022/09/24 03:32:24;;;;;;;;;;;;;;;17.87;52.51;100780.28;4973557;28;20389;-76
2022/09/24 03:35:10;;;;;;;;;;;;;;;17.90;52.30;100790.56;4976616;28;19914;-76
2022/09/24 03:37:54;;;;;;;;;;;;;;;17.82;52.44;100786.09;4975099;28;19914;-76
2022/09/24 03:40:39;;;;;;;;;;;;;;;17.77;52.37;100791.88;4973434;28;19913;-76
2022/09/24 03:43:24;;;;;;;;;;;;;;;17.83;52.60;100792.34;4977495;28;19922;-76
2022/09/24 03:46:09;;;;;;;;;;;;;;;17.96;52.84;100793.81;4975375;28;19921;-76
2022/09/24 03:48:54;;;;;;;;;;;;;;;18.09;51.98;100788.94;4972822;28;19918;-76
2022/09/24 03:51:39;;;;;;;;;;;;;;;18.10;51.92;100788.59;4975185;28;19914;-77
2022/09/24 03:54:24;;;;;;;;;;;;;;;18.17;51.91;100790.69;4977298;28;20297;-76
2022/09/24 03:57:08;;;;;;;;;;;;;;;18.10;51.25;100782.28;4966651;28;19914;-79
2022/09/24 03:59:54;;;;;;;;;;;;;;;17.93;51.74;100781.56;4978354;28;20347;-78
2022/09/24 04:02:39;;;;;;;;;;;;;;;17.83;51.68;100770.34;4977648;28;19918;-76
2022/09/24 04:05:23;;;;;;;;;;;;;;;17.78;52.96;100773.38;4978028;28;19918;-78
2022/09/24 04:08:08;;;;;;;;;;;;;;;17.70;52.64;100766.97;4977519;28;19914;-76
2022/09/24 04:10:54;;;;;;;;;;;;;;;17.75;52.85;100772.19;4979788;28;20301;-77
2022/09/24 04:13:38;;;;;;;;;;;;;;;18.16;53.96;100775.31;4977433;28;19914;-78
2022/09/24 04:16:22;;;;;;;;;;;;;;;18.50;52.79;100777.13;4982627;28;19922;-77
2022/09/24 04:19:07;;;;;;;;;;;;;;;18.76;52.29;100774.47;4975718;28;19914;-77
2022/09/24 04:21:51;;;;;;;;;;;;;;;18.93;51.72;100783.38;4976798;28;20297;-77
2022/09/24 04:24:36;;;;;;;;;;;;;;;18.79;51.33;100773.72;4965353;28;19926;-77
2022/09/24 04:27:20;;;;;;;;;;;;;;;18.89;51.96;100769.56;4972729;28;20378;-77
2022/09/24 04:30:05;;;;;;;;;;;;;;;18.96;51.20;100766.09;5001280;23;19922;-87
2022/09/24 04:32:50;;;;;;;;;;;;;;;18.82;50.15;100760.38;5006320;28;19918;-87
2022/09/24 04:35:35;;;;;;;;;;;;;;;18.52;51.46;100760.25;5023539;28;19913;-87
2022/09/24 04:38:20;;;;;;;;;;;;;;;18.40;52.00;100758.47;5000885;28;19913;-88
2022/09/24 04:41:05;;;;;;;;;;;;;;;18.57;52.79;100766.28;5009833;28;19913;-88
2022/09/24 04:43:50;;;;;;;;;;;;;;;18.83;52.13;100770.22;5002514;28;20305;-87
2022/09/24 04:46:35;;;;;;;;;;;;;;;18.99;51.64;100774.44;5011897;28;19914;-87
2022/09/24 04:49:20;;;;;;;;;;;;;;;19.10;51.64;100771.81;5013331;28;20304;-88
2022/09/24 04:52:05;;;;;;;;;;;;;;;19.18;51.59;100766.06;5009733;28;20301;-87
2022/09/24 04:54:49;;;;;;;;;;;;;;;19.26;51.19;100771.66;5007520;28;19913;-87
2022/09/24 04:57:35;;;;;;;;;;;;;;;19.34;50.88;100773.38;5012195;28;19914;-87
2022/09/24 05:00:20;;;;;;;10.77;2.88;;;;;;;19.31;50.87;100780.41;5003618;28;20389;-85
2022/09/24 05:03:05;;;;;;;11.68;3.40;;;;;;;19.14;51.16;100770.72;5002583;28;20053;-84
2022/09/24 05:05:50;;;;;;;7.60;2.08;;;;;;;19.05;51.44;100769.38;5008135;28;20057;-86
2022/09/24 05:08:35;;;;;;;9.40;2.13;;;;;;;19.00;50.92;100770.50;5004307;28;20049;-86
2022/09/24 05:11:19;;;;;;;13.48;2.70;;;;;;;18.99;51.28;100781.91;5005969;28;20425;-85
2022/09/24 05:14:04;;;;;;;16.02;2.92;;;;;;;18.94;50.77;100772.00;5006193;28;20049;-84
2022/09/24 05:16:49;;;;;;;5.28;2.08;;;;;;;18.92;49.89;100768.00;4998815;28;20049;-86
2022/09/24 05:19:36;;;;;;;4.40;2.03;;;;;;;18.89;49.55;100774.28;5003810;28;20053;-86
2022/09/24 05:22:21;;;;;;;4.82;2.20;;;;;;;18.84;49.57;100778.13;4998338;28;20053;-86
2022/09/24 05:25:06;;;;;;;4.55;2.15;;;;;;;18.82;49.47;100774.94;4995498;28;20054;-86
2022/09/24 05:27:54;;;;;;;;;;;;;;;18.82;49.89;100779.66;5009346;28;20445;-86
2022/09/24 05:30:39;;;;;;;5.63;2.90;;;;;;;18.77;50.14;100758.72;4995385;28;19914;-85
2022/09/24 05:33:24;;;;;;;4.30;1.70;;;;;;;18.74;50.17;100757.50;5004330;28;20397;-85
2022/09/24 05:36:09;;;;;;;5.25;1.95;;;;;;;18.74;50.54;100756.72;5002331;28;20520;-86
2022/09/24 05:38:53;;;;;;;5.45;2.03;;;;;;;18.72;50.82;100765.34;5009877;28;20049;-86
2022/09/24 05:41:39;;;;;;;5.97;2.30;;;;;;;18.69;51.01;100762.53;5002255;28;20045;-86
2022/09/24 05:44:24;;;;;;;4.63;2.30;;;;;;;18.67;51.29;100759.34;5002696;28;20063;-86
2022/09/24 05:47:09;;;;;;;6.65;1.98;;;;;;;18.65;51.74;100773.47;5000877;28;20057;-80
2022/09/24 05:49:54;;;;;;;4.28;2.13;;;;;;;18.64;52.48;100777.41;4997282;28;20426;-81
2022/09/24 05:52:39;;;;;;;5.75;1.85;;;;;;;18.66;52.78;100786.09;4997778;28;20049;-81
2022/09/24 05:55:24;;;;;;;8.25;2.13;;;;;;;18.67;52.79;100792.41;4998306;28;20049;-82
2022/09/24 05:58:10;;;;;;;3.58;1.88;;;;;;;18.68;52.83;100778.28;4998385;28;20061;-82
2022/09/24 06:00:54;;;;;;;7.82;2.35;;;;;;;18.67;52.10;100768.41;4998083;28;20049;-81
2022/09/24 06:03:38;;;;;;;6.80;2.13;;;;;;;18.68;51.48;100763.69;5007623;28;20083;-81
2022/09/24 06:06:25;;;;;;;10.50;3.47;;;;;;;18.67;51.78;100765.66;5006595;28;20060;-82
2022/09/24 06:09:10;;;;;;;6.85;2.13;;;;;;;18.67;51.85;100768.41;4997013;28;20057;-83
2022/09/24 06:11:55;;;;;;;6.15;1.83;;;;;;;18.66;52.44;100774.28;5004361;28;20049;-83
2022/09/24 06:14:41;;;;;;;5.10;2.50;;;;;;;18.65;52.62;100780.94;4994625;28;20414;-83
2022/09/24 06:17:27;;;;;;;7.93;2.03;;;;;;;18.66;52.84;100775.06;4997888;28;20049;-84
2022/09/24 06:20:12;;;;;;;7.85;2.30;;;;;;;18.67;52.82;100779.44;5004086;28;20061;-84
2022/09/24 06:22:57;;;;;;;6.78;2.80;;;;;;;18.67;52.34;100776.69;4994245;28;20049;-83
2022/09/24 06:25:43;;;;;;;;;;;;;;;18.68;52.92;100786.53;4997870;28;20049;-83
2022/09/24 06:28:27;;;;;;;5.45;1.90;;;;;;;18.68;52.52;100783.78;4996767;28;20389;-84
2022/09/24 06:31:12;;;;;;;3.67;2.00;;;;;;;18.69;52.73;100790.84;4999184;28;20045;-86
2022/09/24 06:33:57;;;;;;;3.22;2.00;;;;;;;18.70;53.14;100786.94;5001207;28;20045;-84
2022/09/24 06:36:42;;;;;;;5.88;2.00;;;;;;;18.72;53.08;100787.38;5004608;28;20048;-85
2022/09/24 06:39:27;;;;;;;8.93;1.95;;;;;;;18.74;53.08;100784.28;5007801;28;20046;-85
2022/09/24 06:42:11;;;;;;;3.80;1.50;;;;;;;18.74;52.85;100787.78;5001915;28;20057;-85
2022/09/24 06:44:56;;;;;;;6.55;1.95;;;;;;;18.75;52.56;100786.63;4982606;28;20049;-85
2022/09/24 06:47:41;;;;;;;8.80;1.63;;;;;;;18.75;52.92;100794.91;4990946;28;20053;-86
2022/09/24 06:50:29;;;;;;;9.88;1.58;;;;;;;18.80;52.79;100802.84;5004813;28;20045;-85
2022/09/24 06:53:13;;;;;;;4.70;1.70;;;;;;;18.79;52.72;100806.78;4998316;28;20050;-86
2022/09/24 06:55:58;;;;;;;5.05;2.22;;;;;;;18.82;52.35;100809.97;4998080;28;20049;-85
2022/09/24 06:58:43;;;;;;;;;;;;;;;18.84;52.34;100813.97;4997592;28;20053;-85
2022/09/24 07:01:27;;;;;;;4.78;1.67;;;;;;;18.84;52.27;100815.91;4991149;28;19917;-86
2022/09/24 07:04:12;;;;;;;6.82;1.73;;;;;;;18.85;52.64;100821.03;4990791;28;20049;-86
2022/09/24 07:10:06;;;;;;;2.65;2.00;;;;;;;18.90;52.16;100819.94;5006463;28;20053;-86
2022/09/24 07:12:55;;;;;;;13.18;2.05;;;;;;;18.89;51.65;100819.16;5002423;28;20075;-88
2022/09/24 07:15:42;;;;;;;5.95;1.80;;;;;;;18.92;52.38;100812.91;5003352;28;20041;-89
2022/09/24 07:18:27;;;;;;;6.55;2.35;;;;;;;18.90;52.66;100817.97;4981377;28;20053;-89
2022/09/24 07:21:12;;;;;;;4.30;1.88;;;;;;;18.90;52.63;100811.66;5011575;28;20561;-87
2022/09/24 07:23:56;;;;;;;3.47;1.48;;;;;;;18.94;53.08;100823.56;4997681;28;20049;-85
2022/09/24 07:26:43;;;;;;;;;;;;;;;18.97;52.81;100815.34;4995633;28;20163;-87
2022/09/24 07:29:29;;;;;;;2.10;1.83;;;;;;;18.96;52.37;100823.97;4987605;28;19917;-87
2022/09/24 07:32:16;;;;;;;3.17;1.60;;;;;;;18.98;52.37;100813.38;5002407;28;20052;-86
2022/09/24 07:35:03;;;;;;;5.78;2.22;;;;;;;19.00;52.06;100822.06;4999654;28;20047;-87
2022/09/24 07:37:56;;;;;;;4.43;2.28;;;;;;;19.02;51.63;100833.53;5001904;28;20077;-87
2022/09/24 07:40:41;;;;;;;5.45;1.42;;;;;;;19.01;51.49;100834.69;4994143;28;20041;-87
2022/09/24 07:43:26;;;;;;;;;;;;;;;19.02;51.50;100831.56;5001242;28;20077;-88
2022/09/24 07:46:11;;;;;;;;;;;;;;;19.07;51.60;100831.25;5001877;28;19913;-87
2022/09/24 07:48:56;;;;;;;4.20;2.13;;;;;;;19.04;51.50;100831.22;4994949;28;19914;-85
2022/09/24 07:51:41;;;;;;;4.50;2.38;;;;;;;19.06;51.31;100828.88;4985947;28;20050;-86
2022/09/24 07:54:26;;;;;;;3.10;2.33;;;;;;;19.10;51.49;100838.78;5013748;28;20053;-86
2022/09/24 07:57:12;;;;;;;6.95;2.30;;;;;;;19.13;51.39;100842.78;4996875;28;20054;-85
2022/09/24 07:59:57;;;;;;;4.55;2.25;;;;;;;19.14;51.78;100838.84;4992718;28;21100;-85
2022/09/24 08:02:43;;;;;;;18.20;3.35;;;;;;;19.14;51.68;100838.84;5000725;28;20046;-84
2022/09/24 08:05:28;;;;;;;5.45;2.65;;;;;;;19.24;51.54;100843.75;5001257;28;20048;-85
2022/09/24 08:08:13;;;;;;;4.30;1.70;;;;;;;19.22;50.59;100840.53;5001206;28;20049;-86
2022/09/24 08:11:07;;;;;;;21.48;2.72;;;;;;;19.29;50.22;100843.41;4999199;28;20057;-85
2022/09/24 08:13:52;;;;;;;14.10;1.80;;;;;;;19.35;50.04;100852.19;5016789;28;20521;-84
2022/09/24 08:16:39;;;;;;;7.85;1.50;;;;;;;19.31;49.82;100848.53;5002982;28;20042;-84
2022/09/24 08:19:23;;;;;;;4.60;2.15;;;;;;;19.35;49.77;100841.16;5001040;28;20533;-84
2022/09/24 08:22:09;;;;;;;7.20;1.90;;;;;;;19.36;49.51;100843.50;4999690;28;20065;-84
2022/09/24 08:24:53;;;;;;;;;;;;;;;19.36;49.37;100840.75;5003842;28;20058;-85
2022/09/24 08:27:38;;;;;;;5.10;2.08;;;;;;;19.36;49.22;100848.22;5001798;28;19926;-84
2022/09/24 08:30:23;;;;;;;14.85;2.15;;;;;;;19.43;49.33;100849.16;5000291;28;20041;-86
2022/09/24 08:33:09;;;;;;;4.53;2.00;;;;;;;19.37;49.89;100836.84;5003148;28;20057;-84
2022/09/24 08:35:54;;;;;;;3.97;1.80;;;;;;;19.38;49.79;100841.19;4999781;28;20053;-85
2022/09/24 08:38:39;;;;;;;5.32;2.03;;;;;;;19.44;48.98;100839.75;5014890;28;20066;-85
2022/09/24 08:41:46;;;;;;;2.45;1.50;;;;;;;19.44;49.01;100842.50;5004452;28;20053;-85
2022/09/24 08:47:56;;;;;;;3.80;1.58;;;;;;;19.46;49.40;100847.63;4991501;28;20049;-84
2022/09/24 08:50:50;;;;;;;5.03;1.67;;;;;;;19.44;49.01;100848.00;5002270;28;20579;-86
2022/09/24 08:54:01;;;;;;;4.85;1.45;;;;;;;19.42;49.30;100832.97;5001817;28;20045;-86
2022/09/24 08:56:46;;;;;;;3.97;1.90;;;;;;;19.41;49.08;100840.44;5008213;28;20525;-86
2022/09/24 08:59:36;;;;;;;6.43;1.30;;;;;;;19.45;49.23;100838.56;5006430;28;20053;-87
2022/09/24 09:02:50;;;;;;;2.50;1.45;;;;;;;19.44;48.99;100842.50;5000529;28;20045;-88
2022/09/24 09:05:57;;;;;;;7.07;1.35;;;;;;;19.46;49.47;100842.91;5007486;28;20038;-87
2022/09/24 09:08:55;;;;;;;3.33;1.40;;;;;;;19.49;49.86;100841.38;5008791;28;20053;-87
2022/09/24 09:11:45;;;;;;;5.50;1.58;;;;;;;19.53;49.27;100834.75;5003712;28;20050;-87
2022/09/24 09:14:30;;;;;;;5.03;1.63;;;;;;;19.51;49.54;100842.59;5002593;28;20045;-86
2022/09/24 09:17:33;;;;;;;11.27;1.38;;;;;;;19.49;49.71;100839.41;5000284;28;20050;-87
2022/09/24 09:20:41;;;;;;;6.18;1.55;;;;;;;19.56;50.01;100849.75;4999575;28;20045;-88
2022/09/24 09:23:45;;;;;;;4.55;1.33;;;;;;;19.51;49.89;100848.09;5001351;28;20054;-86
2022/09/24 09:26:30;;;;;;;33.85;2.80;;;;;;;19.51;49.83;100850.84;5004976;28;20041;-86
2022/09/24 09:29:16;;;;;;;7.78;1.27;;;;;;;19.48;50.24;100853.56;5013262;28;20057;-86
2022/09/24 09:32:24;;;;;;;2.55;1.55;;;;;;;19.48;50.00;100853.56;5003888;28;20073;-86
2022/09/24 09:35:30;;;;;;;5.13;1.30;;;;;;;19.52;49.65;100849.69;4997150;28;20057;-87
2022/09/24 09:38:23;;;;;;;3.08;1.30;;;;;;;19.52;49.56;100846.94;5005681;28;20046;-87
2022/09/24 09:41:26;;;;;;;8.07;1.40;;;;;;;19.49;49.70;100849.66;5004047;28;20050;-87
2022/09/24 09:44:23;;;;;;;4.95;1.40;;;;;;;19.47;49.67;100850.00;5005922;28;20054;-87
2022/09/24 09:47:16;;;;;;;1.98;1.40;;;;;;;19.45;49.63;100852.38;5003757;28;20050;-88
2022/09/24 09:50:11;;;;;;;2.83;1.27;;;;;;;19.46;49.91;100855.91;5017786;28;20046;-86
2022/09/24 09:52:55;;;;;;;;;;;;;;;19.46;50.41;100850.38;5002887;28;20053;-86
2022/09/24 09:55:40;;;;;;;3.35;1.40;;;;;;;19.44;50.45;100836.97;4993825;28;19914;-86
2022/09/24 09:58:27;;;;;;;5.82;1.77;;;;;;;19.45;50.47;100835.81;5001447;28;20127;-88
2022/09/24 10:01:17;;;;;;;11.57;2.60;;;;;;;19.47;50.73;100838.19;5002711;28;20049;-88
2022/09/24 10:04:03;;;;;;;9.15;2.60;;;;;;;19.47;50.49;100830.72;4991879;28;20061;-89
2022/09/24 10:06:48;;;;;;;3.70;1.92;;;;;;;19.50;50.67;100829.19;4996737;28;20559;-86
2022/09/24 10:09:34;;;;;;;4.50;2.38;;;;;;;19.55;50.42;100831.63;4997023;28;20057;-86
2022/09/24 10:12:21;;;;;;;3.90;1.70;;;;;;;19.60;50.08;100834.06;4999620;28;20049;-86
2022/09/24 10:15:16;;;;;;;6.32;1.50;;;;;;;19.63;49.74;100831.34;5008610;28;20054;-84
2022/09/24 10:18:02;;;;;;;5.95;2.60;;;;;;;19.55;50.11;100831.63;5009117;28;20053;-88
2022/09/24 10:20:50;;;;;;;3.78;2.05;;;;;;;19.56;50.18;100827.66;5003265;28;20061;-85
2022/09/24 10:23:38;;;;;;;3.78;1.65;;;;;;;19.60;50.15;100828.53;5007013;28;20130;-90
2022/09/24 10:26:36;;;;;;;4.80;1.63;;;;;;;19.62;49.89;100820.66;4999681;28;20049;-88
2022/09/24 10:32:29;;;;;;;5.85;2.40;;;;;;;19.60;49.76;100823.81;4994333;23;20058;-81
2022/09/24 10:35:37;;;;;;;4.00;1.92;;;;;;;19.49;49.52;100814.59;4994792;28;20054;-84
2022/09/24 10:38:23;;;;;;;5.22;3.42;;;;;;;19.57;50.14;100824.53;4993039;28;20050;-81
2022/09/24 10:41:25;;;;;;;2.35;2.00;;;;;;;19.61;50.10;100822.63;4968780;28;20053;-81
2022/09/24 10:44:11;;;;;;;2.45;1.58;;;;;;;19.57;49.33;100823.75;4981797;28;20135;-80
2022/09/24 10:47:18;;;;;;;3.22;1.58;;;;;;;19.62;49.72;100828.94;4959356;28;20050;-79
2022/09/24 10:50:27;;;;;;;3.70;1.60;;;;;;;19.62;49.46;100826.97;4979087;28;20594;-80
2022/09/24 10:53:19;;;;;;;4.43;1.45;;;;;;;19.66;49.19;100827.03;4958501;28;20057;-81
2022/09/24 10:56:15;;;;;;;2.78;1.40;;;;;;;19.67;49.31;100820.34;4973375;28;20050;-82
2022/09/24 10:58:59;;;;;;;2.13;1.27;;;;;;;19.63;49.64;100814.78;4970505;28;20046;-81
2022/09/24 11:02:12;;;;;;;2.83;1.85;;;;;;;19.63;49.07;100814.78;4971515;28;20050;-82
2022/09/24 11:05:01;;;;;;;2.70;1.50;;;;;;;19.58;49.76;100817.06;4957508;28;20062;-79
2022/09/24 11:08:15;;;;;;;5.50;1.67;;;;;;;19.61;49.59;100819.88;4949903;29;20058;-81
2022/09/24 11:11:13;;;;;;;3.42;1.80;;;;;;;19.63;49.51;100816.75;4957715;28;20513;-81
2022/09/24 11:14:13;;;;;;;7.03;1.60;;;;;;;19.59;49.46;100816.69;4962335;28;20054;-80
2022/09/24 11:17:27;;;;;;;7.25;2.08;;;;;;;19.62;49.77;100815.94;4950528;28;20406;-81
2022/09/24 11:20:24;;;;;;;5.78;1.73;;;;;;;19.63;49.78;100808.47;4970986;28;20050;-84
2022/09/24 11:23:31;;;;;;;2.38;1.83;;;;;;;19.64;48.87;100813.63;4968897;28;20046;-83
2022/09/24 11:26:44;;;;;;;2.38;1.30;;;;;;;19.65;49.32;100811.66;4939180;29;20043;-83
2022/09/24 11:29:59;;;;;;;3.50;1.48;;;;;;;19.64;49.55;100808.09;4954867;28;20076;-83
2022/09/24 11:32:47;;;;;;;4.30;1.80;;;;;;;19.72;48.93;100814.50;4959973;28;20062;-84
2022/09/24 11:35:56;;;;;;;5.32;1.60;;;;;;;19.70;49.07;100822.38;4950666;29;20058;-83
2022/09/24 11:39:15;;;;;;;3.90;1.52;;;;;;;19.71;49.12;100823.16;4975374;28;20065;-81
2022/09/24 11:42:20;;;;;;;3.33;1.70;;;;;;;19.66;49.30;100813.22;4979206;28;20062;-78
2022/09/24 11:45:33;;;;;;;2.72;1.15;;;;;;;19.63;49.35;100805.72;4979766;28;20042;-82
2022/09/24 11:48:21;;;;;;;6.03;1.23;;;;;;;19.63;49.68;100812.03;4965109;28;20050;-80
2022/09/24 11:51:35;;;;;;;4.18;1.13;;;;;;;19.70;50.36;100821.56;4962248;28;20525;-81
2022/09/24 11:54:37;;;;;;;4.50;1.80;;;;;;;19.72;50.66;100819.22;4962617;28;20047;-82
2022/09/24 11:57:26;;;;;;;1.58;1.00;;;;;;;19.69;50.82;100822.72;4959712;28;20055;-84
2022/09/24 12:00:16;;;;;;;1.90;1.00;;;;;;;19.68;50.96;100802.63;4948440;28;20053;-80
2022/09/24 12:03:10;;;;;;;4.45;1.20;;;;;;;19.64;51.38;100788.00;4970465;28;20545;-80
2022/09/24 12:06:06;;;;;;;2.33;0.87;;;;;;;19.69;51.43;100792.38;4963238;28;20046;-79
2022/09/24 12:09:21;;;;;;;2.47;1.42;;;;;;;19.73;51.52;100794.00;4954292;29;20059;-83
2022/09/24 12:12:14;;;;;;;2.55;1.25;;;;;;;19.71;51.77;100785.31;4957933;28;20046;-80
2022/09/24 12:15:23;;;;;;;3.05;1.13;;;;;;;19.71;51.82;100781.78;4955986;29;20066;-81
2022/09/24 12:18:16;;;;;;;1.30;0.90;;;;;;;19.69;51.73;100781.34;4966627;28;20533;-79
2022/09/24 12:21:11;;;;;;;6.53;1.38;;;;;;;19.69;51.96;100768.34;4957210;28;20542;-80
2022/09/24 12:24:02;;;;;;;1.35;1.17;;;;;;;19.70;51.97;100761.66;4964482;28;20454;-80
2022/09/24 12:26:49;;;;;;;1.13;0.73;;;;;;;19.70;52.07;100758.09;4959229;28;20058;-80
2022/09/24 12:33:06;;;;;;;3.15;1.58;;;;;;;19.73;52.34;100754.59;4957271;28;20055;-80
2022/09/24 12:36:00;;;;;;;2.65;1.30;;;;;;;19.75;52.55;100755.00;4952979;29;20038;-79
2022/09/24 12:38:51;;;;;;;1.98;1.35;;;;;;;19.78;52.43;100759.78;4973662;28;20050;-81
2022/09/24 12:41:41;;;;;;;4.45;1.52;;;;;;;19.78;52.70;100757.00;4971220;28;20046;-80
2022/09/24 12:44:36;;;;;;;5.38;1.33;;;;;;;19.79;53.00;100758.59;4958893;28;20537;-79
2022/09/24 12:47:25;;;;;;;3.28;1.92;;;;;;;19.79;53.27;100759.41;4954813;28;20050;-78
2022/09/24 12:50:23;;;;;;;3.08;1.27;;;;;;;19.76;53.09;100756.59;4952735;28;20047;-82
2022/09/24 12:53:24;;;;;;;1.63;0.90;;;;;;;19.77;53.39;100753.44;4974730;28;20522;-81
2022/09/24 12:56:10;;;;;;;4.55;1.20;;;;;;;19.74;53.04;100756.97;4957573;28;20042;-80
2022/09/24 12:58:56;;;;;;;4.50;1.40;;;;;;;19.74;53.50;100747.91;4961996;28;20830;-81
2022/09/24 13:01:40;;;;;;;1.05;0.70;;;;;;;19.75;53.13;100750.28;4970309;28;20046;-80
2022/09/24 13:04:27;;;;;;;2.67;1.13;;;;;;;19.78;53.15;100751.50;4960339;28;20410;-80
2022/09/24 13:07:34;;;;;;;1.77;1.00;;;;;;;19.80;53.32;100749.16;4958532;28;20054;-80
2022/09/24 13:10:27;;;;;;;3.72;1.35;;;;;;;19.79;53.40;100753.88;4983023;28;20407;-80
2022/09/24 13:13:24;;;;;;;3.42;2.03;;;;;;;20.07;53.37;100745.09;4957314;28;20529;-76
2022/09/24 13:16:17;;;;;;;4.32;1.73;;;;;;;20.70;52.43;100752.44;4959015;28;20037;-80
2022/09/24 13:19:04;;;;;;;2.58;1.60;;;;;;;20.97;51.88;100744.75;4960913;28;20050;-78
2022/09/24 13:21:56;;;;;;;7.53;2.47;;;;;;;20.96;51.68;100743.16;4960900;28;20058;-79
2022/09/24 13:24:48;;;;;;;6.00;2.88;;;;;;;20.82;51.69;100749.38;4965339;28;20043;-78
2022/09/24 13:27:41;;;;;;;6.82;3.15;;;;;;;20.55;52.52;100742.44;4957245;28;20049;-78
2022/09/24 13:30:29;;;;;;;6.60;2.17;;;;;;;20.59;52.76;100746.03;4965362;28;20058;-78
2022/09/24 13:33:30;;;;;;;4.65;2.90;;;;;;;20.43;52.53;100755.38;4977351;28;20050;-77
2022/09/24 13:36:28;;;;;;;5.93;2.50;;;;;;;20.29;52.99;100748.88;4956382;28;20814;-78
2022/09/24 13:39:30;;;;;;;9.70;3.42;;;;;;;20.32;52.68;100743.41;4963580;28;20045;-80
2022/09/24 13:42:21;;;;;;;7.45;3.30;;;;;;;19.92;54.07;100743.38;4964477;28;20406;-80
2022/09/24 13:45:19;;;;;;;8.60;3.65;;;;;;;20.04;53.91;100737.59;4977560;28;20050;-79
2022/09/24 13:48:13;;;;;;;4.18;1.90;;;;;;;20.05;53.93;100717.91;4956605;29;20058;-78
2022/09/24 13:50:58;;;;;;;10.68;2.90;;;;;;;20.06;52.84;100724.22;4969381;28;20415;-78
2022/09/24 13:53:53;;;;;;;9.90;3.25;;;;;;;20.13;52.61;100713.22;4954541;29;20066;-79